Prairieview, North Dakota
Current Conditions -  °F | °C
As of 8:54 PM on Thursday 27 Nov 2014 (Local Time) from KMOT Reporting Station
Overcast Overcast  
Wind Chill:   Ceiling: 2200
Heat Index: 11°   Visibility: 10mi
Dew Point:   Wind: 7mph
Humidity: 84%   Direction: 90°E
Pressure: 29.94"   Gusts: NA
Location:  47.8053°N, 101.295°W
Report Text: KMOT 280254Z 09006KT 10SM BKN022 OVC038 M12/M14 A2994 RMK AO2 SLP181 60001 T11171139 55011
Loading
Personal Weather Stations






























Interactive Weather Map New forecast layout! Learn more

10-Day Weather Forecast

Advertisements
Track Severe Weather on mobile